createdAt,value
2016-06-22T00:00:42.007Z,16.86
2016-06-22T00:01:42.028Z,16.91
2016-06-22T00:02:41.440Z,16.85
2016-06-22T00:03:42.078Z,16.85
2016-06-22T00:04:42.715Z,16.86
2016-06-22T00:06:42.144Z,16.76
2016-06-22T00:07:42.776Z,16.7
2016-06-22T00:08:42.210Z,16.66
2016-06-22T00:09:42.826Z,16.67
2016-06-22T00:11:42.294Z,16.67
2016-06-22T00:12:56.571Z,16.56
2016-06-22T00:13:42.928Z,16.56
2016-06-22T00:14:42.949Z,16.5
2016-06-22T00:15:42.986Z,16.49
2016-06-22T00:16:56.655Z,16.39
2016-06-22T00:17:42.422Z,16.42
2016-06-22T00:18:41.833Z,16.35
2016-06-22T00:19:41.857Z,16.43
2016-06-22T00:20:41.871Z,16.34
2016-06-22T00:21:43.116Z,16.38
2016-06-22T00:22:41.929Z,16.34
2016-06-22T00:23:42.556Z,16.25
2016-06-22T00:24:42.591Z,16.21
2016-06-22T00:25:56.878Z,16.21
2016-06-22T00:26:43.242Z,16.17
2016-06-22T00:27:57.529Z,16.08
2016-06-22T00:28:42.698Z,16.2
2016-06-22T00:29:42.090Z,16.2
2016-06-22T00:30:42.742Z,16.24
2016-06-22T00:31:43.375Z,16.23
2016-06-22T00:32:42.157Z,16.24
2016-06-22T00:33:42.190Z,16.24
2016-06-22T00:34:43.430Z,16.2
2016-06-22T00:35:42.849Z,16.21
2016-06-22T00:37:57.779Z,16.12
2016-06-22T00:38:42.922Z,16.08
2016-06-22T00:39:42.947Z,16.11
2016-06-22T00:40:42.976Z,16.07
2016-06-22T00:41:43.034Z,16.09
2016-06-22T00:42:43.012Z,16.04
2016-06-22T00:43:57.314Z,16.02
2016-06-22T00:44:43.074Z,16.09
2016-06-22T00:45:43.102Z,16.07
2016-06-22T00:46:43.119Z,16.05
2016-06-22T00:47:42.688Z,16.11
2016-06-22T00:48:43.997Z,16.05
2016-06-22T00:50:42.617Z,16
2016-06-22T00:51:42.633Z,15.93
2016-06-22T00:52:43.274Z,15.92
2016-06-22T00:53:43.314Z,15.96
2016-06-22T00:54:42.711Z,15.92
2016-06-22T00:55:42.731Z,16.01
2016-06-22T00:56:42.754Z,16
2016-06-22T00:57:58.262Z,15.93
2016-06-22T00:58:43.415Z,15.89
2016-06-22T00:59:42.823Z,15.92
2016-06-22T01:00:43.465Z,15.86
2016-06-22T01:01:42.890Z,15.86
2016-06-22T01:02:43.514Z,15.86
2016-06-22T01:04:42.951Z,15.75
2016-06-22T01:05:42.969Z,15.72
2016-06-22T01:06:44.223Z,15.69
2016-06-22T01:07:43.634Z,15.74
2016-06-22T01:08:44.262Z,15.82
2016-06-22T01:09:43.905Z,15.82
2016-06-22T01:10:43.090Z,15.8
2016-06-22T01:11:58.604Z,15.84
2016-06-22T01:12:43.148Z,15.78
2016-06-22T01:13:58.041Z,15.76
2016-06-22T01:14:58.062Z,15.8
2016-06-22T01:15:43.210Z,15.82
2016-06-22T01:16:43.850Z,15.86
2016-06-22T01:18:43.913Z,15.8
2016-06-22T01:19:44.530Z,15.76
2016-06-22T01:20:44.578Z,15.84
2016-06-22T01:21:44.572Z,15.82
2016-06-22T01:22:43.384Z,15.84
2016-06-22T01:23:44.045Z,15.8
2016-06-22T01:24:44.646Z,15.67
2016-06-22T01:25:43.449Z,15.74
2016-06-22T01:26:44.690Z,15.74
2016-06-22T01:27:43.510Z,15.68
2016-06-22T01:29:59.034Z,15.64
2016-06-22T01:30:44.786Z,15.57
2016-06-22T01:31:44.215Z,15.6
2016-06-22T01:32:58.497Z,15.54
2016-06-22T01:33:44.248Z,15.53
2016-06-22T01:34:44.297Z,15.51
2016-06-22T01:35:44.299Z,15.54
2016-06-22T01:36:43.726Z,15.6
2016-06-22T01:37:43.738Z,15.53
2016-06-22T01:38:44.374Z,15.53
2016-06-22T01:39:43.794Z,15.6
2016-06-22T01:40:44.429Z,15.6
2016-06-22T01:41:45.043Z,15.56
2016-06-22T01:42:45.085Z,15.54
2016-06-22T01:43:44.491Z,15.5
2016-06-22T01:44:59.397Z,15.53
2016-06-22T01:45:59.429Z,15.56
2016-06-22T01:47:44.590Z,15.5
2016-06-22T01:48:45.223Z,15.47
2016-06-22T01:49:44.646Z,15.46
2016-06-22T01:50:45.278Z,15.57
2016-06-22T01:51:44.685Z,15.54
2016-06-22T01:52:45.329Z,15.59
2016-06-22T01:53:44.120Z,15.69
2016-06-22T01:54:45.369Z,15.72
2016-06-22T01:55:44.818Z,15.67
2016-06-22T01:56:59.692Z,15.56
2016-06-22T01:57:44.835Z,15.54
2016-06-22T01:58:44.236Z,15.57
2016-06-22T01:59:45.481Z,15.54
2016-06-22T02:00:59.173Z,15.44
2016-06-22T02:01:45.536Z,15.5
2016-06-22T02:02:44.332Z,15.43
2016-06-22T02:03:45.595Z,15.43
2016-06-22T02:04:44.399Z,15.46
2016-06-22T02:05:45.049Z,15.31
2016-06-22T02:06:45.055Z,15.41
2016-06-22T02:07:45.069Z,15.27
2016-06-22T02:08:45.705Z,15.31
2016-06-22T02:09:45.763Z,15.28
2016-06-22T02:10:45.148Z,15.28
2016-06-22T02:11:45.176Z,15.35
2016-06-22T02:12:45.803Z,15.28
2016-06-22T02:13:45.814Z,15.31
2016-06-22T02:14:44.630Z,15.32
2016-06-22T02:15:45.275Z,15.32
2016-06-22T02:16:45.904Z,15.31
2016-06-22T02:17:45.318Z,15.31
2016-06-22T02:18:45.355Z,15.32
2016-06-22T02:19:45.374Z,15.25
2016-06-22T02:20:45.998Z,15.31
2016-06-22T02:21:59.671Z,15.19
2016-06-22T02:22:45.445Z,15.17
2016-06-22T02:23:45.461Z,15.2
2016-06-22T02:24:46.097Z,15.2
2016-06-22T02:25:46.144Z,15.2
2016-06-22T02:26:44.925Z,15.21
2016-06-22T02:27:45.553Z,15.19
2016-06-22T02:28:45.579Z,15.2
2016-06-22T02:29:46.222Z,15.21
2016-06-22T02:30:45.032Z,15.27
2016-06-22T02:32:59.947Z,15.32
2016-06-22T02:33:45.092Z,15.17
2016-06-22T02:34:45.718Z,15.31
2016-06-22T02:35:45.753Z,15.36
2016-06-22T02:36:45.776Z,15.31
2016-06-22T02:37:45.188Z,15.2
2016-06-22T02:38:45.828Z,15.23
2016-06-22T02:39:45.845Z,15.27
2016-06-22T02:40:45.269Z,15.27
2016-06-22T02:41:45.906Z,15.25
2016-06-22T02:42:46.531Z,15.27
2016-06-22T02:43:45.339Z,15.27
2016-06-22T02:44:45.361Z,15.27
2016-06-22T02:46:00.872Z,15.27
2016-06-22T02:47:46.040Z,15.29
2016-06-22T02:49:00.333Z,15.27
2016-06-22T02:49:46.697Z,15.32
2016-06-22T02:51:00.383Z,15.28
2016-06-22T02:51:46.134Z,15.23
2016-06-22T02:53:00.424Z,15.29
2016-06-22T02:53:46.798Z,15.29
2016-06-22T02:54:46.213Z,15.27
2016-06-22T02:56:46.867Z,15.16
2016-06-22T02:57:46.303Z,15.1
2016-06-22T02:58:45.695Z,15.16
2016-06-22T02:59:45.718Z,15.16
2016-06-22T03:01:46.980Z,15.09
2016-06-22T03:02:46.436Z,15.11
2016-06-22T03:03:47.039Z,15.17
2016-06-22T03:05:00.720Z,15.14
2016-06-22T03:05:45.860Z,15.09
2016-06-22T03:06:46.498Z,15.09
2016-06-22T03:07:46.532Z,15.1
2016-06-22T03:08:45.925Z,15.1
2016-06-22T03:09:46.575Z,15.11
2016-06-22T03:10:46.583Z,15.06
2016-06-22T03:11:46.614Z,15.02
2016-06-22T03:12:47.252Z,15.13
2016-06-22T03:13:47.262Z,15.13
2016-06-22T03:14:46.079Z,15.16
2016-06-22T03:16:46.730Z,15.21
2016-06-22T03:17:46.149Z,15.1
2016-06-22T03:19:01.660Z,15.14
2016-06-22T03:19:46.811Z,15.2
2016-06-22T03:21:01.151Z,15.25
2016-06-22T03:21:47.466Z,15.25
2016-06-22T03:22:46.877Z,15.34
2016-06-22T03:23:46.327Z,15.28
2016-06-22T03:24:46.322Z,15.17
2016-06-22T03:25:47.561Z,15.31
2016-06-22T03:27:01.242Z,15.35
2016-06-22T03:27:47.618Z,15.35
2016-06-22T03:28:46.410Z,15.43
2016-06-22T03:29:46.435Z,15.39
2016-06-22T03:30:46.457Z,15.36
2016-06-22T03:31:47.096Z,15.36
2016-06-22T03:32:47.119Z,15.41
2016-06-22T03:33:46.534Z,15.44
2016-06-22T03:34:47.171Z,15.49
2016-06-22T03:36:02.075Z,15.49
2016-06-22T03:36:47.217Z,15.5
2016-06-22T03:37:47.855Z,15.49
2016-06-22T03:38:47.251Z,15.57
2016-06-22T03:39:47.289Z,15.56
2016-06-22T03:40:46.710Z,15.71
2016-06-22T03:41:46.726Z,15.65
2016-06-22T03:42:47.360Z,15.86
2016-06-22T03:43:47.390Z,15.97
2016-06-22T03:44:46.792Z,16.02
2016-06-22T03:45:47.445Z,16.2
2016-06-22T03:46:47.461Z,16.21
2016-06-22T03:47:46.881Z,16.31
2016-06-22T03:48:47.518Z,16.43
2016-06-22T03:49:47.529Z,16.45
2016-06-22T03:50:47.549Z,16.42
2016-06-22T03:51:47.594Z,16.57
2016-06-22T03:52:46.999Z,16.73
2016-06-22T03:54:47.647Z,16.81
2016-06-22T03:55:48.291Z,16.94
2016-06-22T03:57:01.971Z,17.07
2016-06-22T03:57:47.714Z,17.08
2016-06-22T03:58:47.749Z,17.21
2016-06-22T03:59:47.158Z,17.23
2016-06-22T04:00:47.798Z,17.25
2016-06-22T04:01:47.815Z,17.4
2016-06-22T04:03:02.730Z,17.36
2016-06-22T04:03:48.484Z,17.36
2016-06-22T04:04:47.917Z,17.43
2016-06-22T04:05:48.538Z,17.46
2016-06-22T04:06:47.941Z,17.54
2016-06-22T04:08:02.843Z,17.51
2016-06-22T04:08:47.983Z,17.59
2016-06-22T04:09:47.421Z,17.56
2016-06-22T04:11:02.320Z,17.68
2016-06-22T04:12:02.935Z,17.62
2016-06-22T04:12:47.484Z,17.66
2016-06-22T04:13:47.506Z,17.71
2016-06-22T04:14:48.132Z,17.77
2016-06-22T04:15:48.773Z,17.78
2016-06-22T04:16:48.183Z,17.77
2016-06-22T04:17:47.601Z,17.82
2016-06-22T04:18:48.237Z,17.81
2016-06-22T04:19:47.648Z,17.86
2016-06-22T04:20:48.891Z,17.82
2016-06-22T04:21:48.916Z,17.87
2016-06-22T04:22:48.334Z,17.89
2016-06-22T04:24:03.238Z,17.95
2016-06-22T04:24:48.392Z,17.99
2016-06-22T04:25:47.787Z,17.99
2016-06-22T04:26:48.434Z,18.02
2016-06-22T04:28:48.495Z,18.05
2016-06-22T04:29:47.888Z,18.11
2016-06-22T04:30:47.913Z,18.11
2016-06-22T04:31:48.566Z,18.18
2016-06-22T04:32:47.970Z,18.25
2016-06-22T04:33:49.202Z,18.32
2016-06-22T04:34:48.626Z,18.36
2016-06-22T04:35:48.650Z,18.36
2016-06-22T04:36:48.067Z,18.57
2016-06-22T04:38:02.974Z,18.63
2016-06-22T04:38:49.348Z,18.69
2016-06-22T04:40:03.014Z,18.8
2016-06-22T04:41:03.045Z,18.9
2016-06-22T04:41:48.809Z,18.99
2016-06-22T04:43:48.240Z,19.18
2016-06-22T04:44:49.476Z,19.28
2016-06-22T04:45:49.511Z,19.36
2016-06-22T04:46:49.540Z,19.54
2016-06-22T04:47:49.548Z,19.86
2016-06-22T04:48:48.989Z,20.16
2016-06-22T04:49:49.004Z,20.28
2016-06-22T04:50:49.626Z,20.52
2016-06-22T04:51:49.663Z,21.07
2016-06-22T04:52:49.679Z,21.58
2016-06-22T04:53:49.123Z,21.82
2016-06-22T04:54:49.131Z,21.86
2016-06-22T04:56:03.427Z,22.47
2016-06-22T04:56:49.790Z,23.2
2016-06-22T04:57:49.213Z,23.43
2016-06-22T04:58:49.856Z,23.5
2016-06-22T04:59:48.647Z,23.76
2016-06-22T05:01:03.551Z,24.71
2016-06-22T05:01:49.303Z,25.65
2016-06-22T05:02:48.729Z,26.58
2016-06-22T05:03:49.363Z,27.13
2016-06-22T05:05:03.674Z,26.87
2016-06-22T05:05:50.043Z,26.58
2016-06-22T05:06:49.454Z,26.07
2016-06-22T05:07:49.470Z,25.85
2016-06-22T05:08:49.509Z,26.23
2016-06-22T05:09:50.156Z,27.03
2016-06-22T05:11:49.618Z,27.85
2016-06-22T05:12:49.646Z,27.63
2016-06-22T05:13:49.657Z,27.43
2016-06-22T05:14:49.077Z,27.24
2016-06-22T05:15:49.713Z,26.99
2016-06-22T05:16:50.355Z,26.67
2016-06-22T05:17:49.771Z,26.43
2016-06-22T05:18:49.819Z,26.01
2016-06-22T05:19:50.442Z,25.95
2016-06-22T05:20:49.864Z,25.85
2016-06-22T05:21:49.918Z,26.13
2016-06-22T05:22:49.314Z,26.39
2016-06-22T05:25:04.860Z,26.45
2016-06-22T05:26:04.886Z,26.48
2016-06-22T05:26:50.039Z,26.66
2016-06-22T05:27:50.066Z,26.62
2016-06-22T05:28:50.100Z,27.44
2016-06-22T05:29:50.127Z,28.67
2016-06-22T05:30:50.167Z,29.67
2016-06-22T05:32:50.221Z,30.75
2016-06-22T05:33:50.264Z,30.73
2016-06-22T05:34:50.900Z,30.1
2016-06-22T05:35:50.922Z,29.97
2016-06-22T05:38:05.261Z,30.94
2016-06-22T05:38:50.402Z,31.26
2016-06-22T05:39:51.047Z,31.09
2016-06-22T05:40:49.854Z,31.69
2016-06-22T05:41:50.498Z,32.06
2016-06-22T05:43:04.805Z,32.72
2016-06-22T05:43:50.610Z,32.66
2016-06-22T05:44:50.605Z,32.18
2016-06-22T05:45:50.021Z,31.88
2016-06-22T05:46:50.052Z,31.62
2016-06-22T05:47:50.690Z,31.34
2016-06-22T05:48:50.739Z,31.25
2016-06-22T05:49:50.155Z,31.17
2016-06-22T05:50:50.784Z,30.62
2016-06-22T05:51:50.211Z,30.58
2016-06-22T05:52:51.496Z,30.64
2016-06-22T05:53:50.283Z,30.53
2016-06-22T05:54:50.913Z,30.42
2016-06-22T05:56:50.978Z,29.68
2016-06-22T05:57:51.003Z,29.3
2016-06-22T05:59:05.926Z,29.48
2016-06-22T06:00:05.346Z,29.71
2016-06-22T06:00:51.103Z,30
2016-06-22T06:01:50.524Z,30.34
2016-06-22T06:02:50.558Z,30.69
2016-06-22T06:03:51.206Z,31.29
2016-06-22T06:04:51.851Z,32.3
2016-06-22T06:05:51.271Z,33.15
2016-06-22T06:07:06.194Z,33.86
2016-06-22T06:07:50.724Z,34.12
2016-06-22T06:08:51.363Z,34.88
2016-06-22T06:09:51.396Z,35.5
2016-06-22T06:10:51.443Z,35.36
2016-06-22T06:11:50.851Z,35.84
2016-06-22T06:12:52.109Z,36.16
2016-06-22T06:15:06.447Z,36.71
2016-06-22T06:15:51.602Z,36.81
2016-06-22T06:16:51.639Z,36.69
2016-06-22T06:17:51.674Z,37.18
2016-06-22T06:18:51.729Z,37.32
2016-06-22T06:19:51.734Z,37.62
2016-06-22T06:20:51.791Z,37.85
2016-06-22T06:21:51.209Z,37.96
2016-06-22T06:22:51.244Z,38.01
2016-06-22T06:23:51.892Z,37.62
2016-06-22T06:24:51.927Z,37.85
2016-06-22T06:25:51.966Z,37.86
2016-06-22T06:27:06.889Z,37.76
2016-06-22T06:27:52.674Z,37.59
2016-06-22T06:28:52.676Z,37.67
2016-06-22T06:29:52.727Z,37.69
2016-06-22T06:31:07.023Z,38.16
2016-06-22T06:31:51.574Z,38.09
2016-06-22T06:33:06.496Z,38.35
2016-06-22T06:33:51.650Z,38.07
2016-06-22T06:34:52.914Z,38.31
2016-06-22T06:35:52.321Z,37.78
2016-06-22T06:36:51.759Z,37.34
2016-06-22T06:37:51.800Z,37.44
2016-06-22T06:38:52.439Z,37.63
2016-06-22T06:39:51.873Z,37.85
2016-06-22T06:40:51.919Z,38.11
2016-06-22T06:41:52.554Z,38.66
2016-06-22T06:42:52.592Z,39.01
2016-06-22T06:43:52.641Z,39.16
2016-06-22T06:44:53.286Z,39.23
2016-06-22T06:46:07.820Z,38.44
2016-06-22T06:46:52.165Z,38.53
2016-06-22T06:47:52.785Z,38.72
2016-06-22T06:49:07.705Z,39.04
2016-06-22T06:49:52.269Z,39.21
2016-06-22T06:50:52.287Z,39.5
2016-06-22T06:51:52.320Z,39.36
2016-06-22T06:52:52.379Z,39.04
2016-06-22T06:53:53.011Z,38.6
2016-06-22T06:54:53.051Z,38.37
2016-06-22T06:55:53.089Z,38.65
2016-06-22T06:56:53.133Z,39.23
2016-06-22T06:57:53.166Z,39.55
2016-06-22T06:58:53.821Z,39.16
2016-06-22T06:59:53.250Z,38.74
2016-06-22T07:00:52.686Z,38.23
2016-06-22T07:02:08.209Z,37.63
2016-06-22T07:03:07.633Z,37.49
2016-06-22T07:03:52.800Z,37.36
2016-06-22T07:04:53.433Z,36.81
2016-06-22T07:06:52.915Z,35.99
2016-06-22T07:07:52.943Z,35.99
2016-06-22T07:08:52.979Z,36.15
2016-06-22T07:10:53.666Z,36.69
2016-06-22T07:11:54.293Z,36.8
2016-06-22T07:12:53.150Z,36.94
2016-06-22T07:13:53.774Z,37.32
2016-06-22T07:14:53.815Z,37.64
2016-06-22T07:15:53.838Z,37.22
2016-06-22T07:16:54.498Z,37.28
2016-06-22T07:18:08.839Z,37.13
2016-06-22T07:18:53.953Z,37.02
2016-06-22T07:19:53.394Z,37.21
2016-06-22T07:20:54.632Z,37.43
2016-06-22T07:21:54.327Z,37.56
2016-06-22T07:22:53.505Z,37.56
2016-06-22T07:23:54.163Z,37.64
2016-06-22T07:24:53.930Z,37.27
2016-06-22T07:25:54.209Z,36.62
2016-06-22T07:26:54.866Z,36.57
2016-06-22T07:27:54.544Z,37.64
2016-06-22T07:28:54.443Z,37.7
2016-06-22T07:29:53.786Z,38.11
2016-06-22T07:30:55.017Z,38.68
2016-06-22T07:31:55.062Z,38.95
2016-06-22T07:32:55.568Z,39.25
2016-06-22T07:34:09.392Z,39.09
2016-06-22T07:35:08.822Z,38.59
2016-06-22T07:35:53.965Z,38.74
2016-06-22T07:36:55.374Z,39.35
2016-06-22T07:37:54.655Z,39.36
2016-06-22T07:38:54.450Z,39.64
2016-06-22T07:39:54.323Z,39.4
2016-06-22T07:40:54.777Z,39.57
2016-06-22T07:41:55.725Z,39.6
2016-06-22T07:42:55.749Z,39.45
2016-06-22T07:43:55.511Z,38.96
2016-06-22T07:44:54.932Z,39.18
2016-06-22T07:45:55.610Z,39.59
2016-06-22T07:46:55.006Z,39.47
2016-06-22T07:47:55.043Z,39.01
2016-06-22T07:48:55.099Z,39.29
2016-06-22T07:50:10.004Z,39.54
2016-06-22T07:50:55.169Z,39.79
2016-06-22T07:52:54.633Z,39.18
2016-06-22T07:53:54.678Z,38.9
2016-06-22T07:54:55.325Z,38.86
2016-06-22T07:55:54.783Z,39.11
2016-06-22T07:56:54.779Z,39.07
2016-06-22T07:57:55.429Z,38.81
2016-06-22T07:58:55.477Z,38.87
2016-06-22T07:59:54.893Z,38.65
2016-06-22T08:01:56.214Z,38.75
2016-06-22T08:02:55.625Z,38.74
2016-06-22T08:03:55.655Z,38.71
2016-06-22T08:05:10.587Z,38.95
2016-06-22T08:06:10.618Z,38.66
2016-06-22T08:06:55.791Z,38.83
2016-06-22T08:07:56.437Z,38.25
2016-06-22T08:08:55.853Z,38.63
2016-06-22T08:09:55.895Z,38.71
2016-06-22T08:10:55.939Z,38.59
2016-06-22T08:11:55.343Z,38.83
2016-06-22T08:12:56.014Z,39.13
2016-06-22T08:13:56.660Z,38.71
2016-06-22T08:14:56.709Z,38.78
2016-06-22T08:15:56.118Z,39.18
2016-06-22T08:16:55.547Z,38.53
2016-06-22T08:17:55.583Z,38.6
2016-06-22T08:18:56.840Z,38.38
2016-06-22T08:20:11.157Z,38.22
2016-06-22T08:21:11.198Z,38.35
2016-06-22T08:21:56.355Z,38.6
2016-06-22T08:22:55.779Z,38.52
2016-06-22T08:23:56.419Z,38.59
2016-06-22T08:24:56.471Z,38.78
2016-06-22T08:25:57.126Z,38.76
2016-06-22T08:26:57.153Z,38.91
2016-06-22T08:27:56.582Z,38.65
2016-06-22T08:28:56.618Z,38.78
2016-06-22T08:29:57.265Z,38.72
2016-06-22T08:30:56.102Z,38.38
2016-06-22T08:31:56.126Z,37.86
2016-06-22T08:33:56.199Z,37.63
2016-06-22T08:34:56.852Z,37.2
2016-06-22T08:35:57.492Z,37.29
2016-06-22T08:36:56.957Z,37.84
2016-06-22T08:37:57.565Z,38.54
2016-06-22T08:38:57.598Z,38.79
2016-06-22T08:39:57.042Z,38.5
2016-06-22T08:40:57.692Z,38.41
2016-06-22T08:41:57.728Z,38.28
2016-06-22T08:42:57.756Z,37.67
2016-06-22T08:43:57.185Z,37.37
2016-06-22T08:45:12.122Z,37.02
2016-06-22T08:46:57.292Z,36.91
2016-06-22T08:47:57.943Z,36.88
2016-06-22T08:48:57.375Z,36.94
2016-06-22T08:49:56.798Z,36.81
2016-06-22T08:50:57.443Z,36.6
2016-06-22T08:52:12.354Z,36.29
2016-06-22T08:53:12.396Z,36.13
2016-06-22T08:53:57.539Z,36.01
2016-06-22T08:54:58.190Z,35.75
2016-06-22T08:56:11.892Z,36.12
2016-06-22T08:56:57.659Z,35.81
2016-06-22T08:57:57.700Z,35.89
2016-06-22T08:58:57.121Z,36.22
2016-06-22T08:59:57.787Z,36.17
2016-06-22T09:00:57.818Z,36.01
2016-06-22T09:01:57.850Z,36.13
2016-06-22T09:02:58.494Z,35.99
2016-06-22T09:04:57.334Z,35.89
2016-06-22T09:05:57.369Z,35.81
2016-06-22T09:07:58.095Z,35.68
2016-06-22T09:09:12.971Z,35.94
2016-06-22T09:09:57.513Z,36.01
2016-06-22T09:10:58.795Z,35.84
2016-06-22T09:12:13.068Z,36.05
2016-06-22T09:12:58.237Z,36.13
2016-06-22T09:13:58.887Z,36.05
2016-06-22T09:14:58.307Z,35.85
2016-06-22T09:15:58.333Z,35.62
2016-06-22T09:16:58.400Z,35.81
2016-06-22T09:17:58.402Z,35.71
2016-06-22T09:18:57.835Z,35.65
2016-06-22T09:19:57.869Z,35.8
2016-06-22T09:20:59.119Z,35.48
2016-06-22T09:22:13.427Z,35.41
2016-06-22T09:22:58.007Z,35.75
2016-06-22T09:23:58.610Z,35.94
2016-06-22T09:25:13.532Z,36.07
2016-06-22T09:25:58.700Z,36.19
2016-06-22T09:26:58.735Z,36.22
2016-06-22T09:27:59.367Z,36.2
2016-06-22T09:28:58.781Z,36.03
2016-06-22T09:29:58.827Z,35.85
2016-06-22T09:30:59.471Z,35.56
2016-06-22T09:31:59.502Z,35.97
2016-06-22T09:32:59.547Z,35.7
2016-06-22T09:33:59.574Z,36.16
2016-06-22T09:35:00.274Z,35.84
2016-06-22T09:35:59.654Z,36.17
2016-06-22T09:36:59.677Z,36.25
2016-06-22T09:37:59.718Z,36.08
2016-06-22T09:38:59.751Z,36.34
2016-06-22T09:39:59.168Z,36.54
2016-06-22T09:41:14.107Z,36.75
2016-06-22T09:41:59.862Z,36.64
2016-06-22T09:43:59.327Z,36.53
2016-06-22T09:45:58.777Z,36.57
2016-06-22T09:47:00.038Z,36.59
2016-06-22T09:47:58.849Z,36.83
2016-06-22T09:48:59.498Z,37.18
2016-06-22T09:49:58.924Z,37.17
2016-06-22T09:51:00.165Z,37.17
2016-06-22T09:51:58.989Z,37.06
2016-06-22T09:52:59.627Z,37.2
2016-06-22T09:53:59.041Z,37.32
2016-06-22T09:54:59.697Z,37.15
2016-06-22T09:56:14.616Z,37.03
2016-06-22T09:58:00.404Z,37.18
2016-06-22T09:58:59.234Z,37.32
2016-06-22T09:59:59.257Z,37.63
2016-06-22T10:00:59.901Z,36.94
2016-06-22T10:02:00.546Z,37.06
2016-06-22T10:02:59.979Z,36.9
2016-06-22T10:03:59.397Z,37.12
2016-06-22T10:05:00.042Z,36.98
2016-06-22T10:06:00.701Z,37.12
2016-06-22T10:07:00.098Z,36.72
2016-06-22T10:07:59.533Z,36.59
2016-06-22T10:09:00.190Z,36.43
2016-06-22T10:10:00.231Z,36.37
2016-06-22T10:10:59.627Z,36.57
2016-06-22T10:12:00.893Z,36.19
2016-06-22T10:12:59.704Z,36.43
2016-06-22T10:13:59.671Z,36.57
2016-06-22T10:15:01.002Z,36.08
2016-06-22T10:16:00.427Z,35.85
2016-06-22T10:16:59.847Z,35.34
2016-06-22T10:18:00.505Z,35.11
2016-06-22T10:18:59.942Z,35.22
2016-06-22T10:20:01.191Z,35.1
2016-06-22T10:22:00.628Z,35.48
2016-06-22T10:23:00.046Z,35.84
2016-06-22T10:24:00.081Z,36.31
2016-06-22T10:25:00.729Z,36.39
2016-06-22T10:26:00.765Z,36.2
2016-06-22T10:27:00.182Z,36.16
2016-06-22T10:28:15.705Z,36.25
2016-06-22T10:29:00.854Z,36.31
2016-06-22T10:30:00.887Z,36.07
2016-06-22T10:31:00.934Z,36.41
2016-06-22T10:33:01.046Z,35.45
2016-06-22T10:35:01.682Z,35.58
2016-06-22T10:36:00.487Z,35.92
2016-06-22T10:37:01.131Z,35.89
2016-06-22T10:38:00.544Z,35.7
2016-06-22T10:39:00.578Z,35.18
2016-06-22T10:40:16.113Z,35.1
2016-06-22T10:41:01.871Z,35.03
2016-06-22T10:42:01.288Z,34.96
2016-06-22T10:43:00.737Z,34.1
2016-06-22T10:44:16.250Z,33.94
2016-06-22T10:45:01.396Z,33.88
2016-06-22T10:46:00.825Z,33.94
2016-06-22T10:47:00.863Z,33.84
2016-06-22T10:48:15.766Z,33.84
2016-06-22T10:49:00.930Z,33.93
2016-06-22T10:50:01.570Z,33.87
2016-06-22T10:52:01.636Z,34.05
2016-06-22T10:54:01.704Z,34
2016-06-22T10:55:01.126Z,34.03
2016-06-22T10:56:02.378Z,33.95
2016-06-22T10:57:16.081Z,34.1
2016-06-22T10:58:01.835Z,34.08
2016-06-22T10:59:01.871Z,34.03
2016-06-22T11:00:16.176Z,33.97
2016-06-22T11:01:16.207Z,34.06
2016-06-22T11:02:01.350Z,34.08
2016-06-22T11:03:02.618Z,34.12
2016-06-22T11:04:02.049Z,34.09
2016-06-22T11:05:02.065Z,34.08
2016-06-22T11:06:01.494Z,33.81
2016-06-22T11:07:02.750Z,33.76
2016-06-22T11:08:01.556Z,33.79
2016-06-22T11:09:02.207Z,33.93
2016-06-22T11:10:02.843Z,34
2016-06-22T11:11:01.643Z,33.76
2016-06-22T11:12:02.911Z,33.53
2016-06-22T11:13:02.328Z,33.19
2016-06-22T11:14:01.759Z,33.11
2016-06-22T11:15:02.393Z,33.03
2016-06-22T11:16:16.700Z,33.01
2016-06-22T11:17:02.483Z,33
2016-06-22T11:19:02.539Z,33.22
2016-06-22T11:20:03.180Z,32.82
2016-06-22T11:21:02.610Z,32.62
2016-06-22T11:22:02.661Z,32.62
2016-06-22T11:23:02.662Z,32.47
2016-06-22T11:24:02.694Z,32.56
2016-06-22T11:25:02.127Z,32.65
2016-06-22T11:26:02.750Z,32.48
2016-06-22T11:27:02.790Z,32.44
2016-06-22T11:28:02.209Z,32.77
2016-06-22T11:29:02.241Z,32.77
2016-06-22T11:30:03.504Z,32.75
2016-06-22T11:31:17.815Z,32.96
2016-06-22T11:32:02.950Z,32.99
2016-06-22T11:33:17.863Z,32.96
2016-06-22T11:34:03.100Z,33.11
2016-06-22T11:35:03.668Z,32.93
2016-06-22T11:36:02.474Z,33.19
2016-06-22T11:37:03.137Z,33.06
2016-06-22T11:38:03.151Z,33.15
2016-06-22T11:39:03.186Z,33.51
2016-06-22T11:40:02.600Z,33.51
2016-06-22T11:43:03.300Z,32.87
2016-06-22T11:44:03.943Z,32.92
2016-06-22T11:45:02.767Z,32.92
2016-06-22T11:46:04.019Z,32.96
2016-06-22T11:47:03.447Z,32.82
2016-06-22T11:48:17.743Z,32.82
2016-06-22T11:49:04.111Z,32.93
2016-06-22T11:50:18.414Z,32.97
2016-06-22T11:51:03.563Z,33.12
2016-06-22T11:52:03.607Z,33.12
2016-06-22T11:53:03.633Z,33.18
2016-06-22T11:54:03.048Z,33.06
2016-06-22T11:55:03.697Z,33.01
2016-06-22T11:56:03.745Z,32.92
2016-06-22T11:57:03.764Z,33
2016-06-22T11:58:04.406Z,33.28
2016-06-22T11:59:03.842Z,33.12
2016-06-22T12:00:03.861Z,33.31
2016-06-22T12:01:18.166Z,33.49
2016-06-22T12:02:04.533Z,33.49
2016-06-22T12:03:18.223Z,33.44
2016-06-22T12:04:03.383Z,33.38
2016-06-22T12:05:04.624Z,33.04
2016-06-22T12:06:04.061Z,32.99
2016-06-22T12:07:04.706Z,32.82
2016-06-22T12:08:04.753Z,33.11
2016-06-22T12:09:18.421Z,33.45
2016-06-22T12:10:04.190Z,33.59
2016-06-22T12:12:04.867Z,33.35
2016-06-22T12:13:03.662Z,33.19
2016-06-22T12:14:04.310Z,33.19
2016-06-22T12:15:04.337Z,33.21
2016-06-22T12:16:03.762Z,33.39
2016-06-22T12:17:04.414Z,33.42
2016-06-22T12:18:04.448Z,33.73
2016-06-22T12:19:19.348Z,33.94
2016-06-22T12:20:05.114Z,33.68
2016-06-22T12:21:03.935Z,33.59
2016-06-22T12:22:04.569Z,33.49
2016-06-22T12:23:03.987Z,33.31
2016-06-22T12:24:05.244Z,32.84
2016-06-22T12:25:04.690Z,33.12
2016-06-22T12:26:04.702Z,33.14
2016-06-22T12:27:05.337Z,33.12
2016-06-22T12:28:04.146Z,33.04
2016-06-22T12:30:04.230Z,32.87
2016-06-22T12:31:05.471Z,32.92
2016-06-22T12:32:04.272Z,32.74
2016-06-22T12:33:19.210Z,32.94
2016-06-22T12:34:04.963Z,32.99
2016-06-22T12:35:19.277Z,33.03
2016-06-22T12:36:05.635Z,33.06
2016-06-22T12:37:05.666Z,33.09
2016-06-22T12:39:05.729Z,33.15
2016-06-22T12:40:20.033Z,33.11
2016-06-22T12:42:05.840Z,32.81
2016-06-22T12:43:04.660Z,32.67
2016-06-22T12:44:05.288Z,32.6
2016-06-22T12:45:04.690Z,32.51
2016-06-22T12:46:05.338Z,32.55
2016-06-22T12:48:04.787Z,32.32
2016-06-22T12:49:04.823Z,32.33
2016-06-22T12:50:20.349Z,32.19
2016-06-22T12:51:20.384Z,32.07
2016-06-22T12:52:05.538Z,32.01
2016-06-22T12:53:20.436Z,32.15
2016-06-22T12:54:04.970Z,31.95
2016-06-22T12:55:05.615Z,31.57
2016-06-22T12:56:05.664Z,31.72
2016-06-22T12:57:05.687Z,31.62
2016-06-22T12:58:05.708Z,31.53
2016-06-22T12:59:05.165Z,31.39
2016-06-22T13:00:05.178Z,31.34
2016-06-22T13:01:20.080Z,31.17
2016-06-22T13:05:20.213Z,31.2
2016-06-22T13:06:20.239Z,31.26
2016-06-22T13:07:06.905Z,31.31
2016-06-22T13:08:06.023Z,31.34
2016-06-22T13:09:06.051Z,31.46
2016-06-22T13:10:06.095Z,31.51
2016-06-22T13:11:06.771Z,31.53
2016-06-22T13:12:05.560Z,31.85
2016-06-22T13:13:06.201Z,32.04
2016-06-22T13:14:06.824Z,32.21
2016-06-22T13:15:06.882Z,32.48
2016-06-22T13:16:06.885Z,32.6
2016-06-22T13:17:06.382Z,32.45
2016-06-22T13:18:06.958Z,32.25
2016-06-22T13:19:05.775Z,32.18
2016-06-22T13:21:06.453Z,31.91
2016-06-22T13:22:05.850Z,32.03
2016-06-22T13:23:05.899Z,31.92
2016-06-22T13:24:06.529Z,31.72
2016-06-22T13:25:06.582Z,31.62
2016-06-22T13:26:06.606Z,31.51
2016-06-22T13:27:07.256Z,31.06
2016-06-22T13:28:06.668Z,30.92
2016-06-22T13:29:07.307Z,30.7
2016-06-22T13:30:06.730Z,30.46
2016-06-22T13:31:06.757Z,30.26
2016-06-22T13:32:06.801Z,30.05
2016-06-22T13:33:06.205Z,29.83
2016-06-22T13:34:06.236Z,29.87
2016-06-22T13:36:06.924Z,29.55
2016-06-22T13:37:06.946Z,29.71
2016-06-22T13:38:21.243Z,29.57
2016-06-22T13:39:07.004Z,29.51
2016-06-22T13:40:07.047Z,29.33
2016-06-22T13:41:07.071Z,29.18
2016-06-22T13:42:07.088Z,29.15
2016-06-22T13:43:06.525Z,29.18
2016-06-22T13:44:07.154Z,29.06
2016-06-22T13:45:07.807Z,29.12
2016-06-22T13:46:06.616Z,29.23
2016-06-22T13:47:07.257Z,29.12